Bear Creek, Louisiana
Current Conditions -  °F | °C
As of 12:35 PM on Saturday 20 Dec 2014 (Local Time) from KRSN Reporting Station
Scattered Clouds Scattered Clouds  
Wind Chill: 50°   Ceiling: Unl
Heat Index: 50°   Visibility: 10mi
Dew Point: 44°   Wind: 0mph
Humidity: 81%   Direction: NA
Pressure: 30.25"   Gusts: NA
Location:  32.3029°N, 92.924°W
Report Text: KRSN 201835Z AUTO 00000KT 10SM SCT018 SCT022 10/07 A3025 RMK AO2 T00990067
Loading
Personal Weather Stations






























Interactive Weather Map New forecast layout! Learn more

10-Day Weather Forecast

Advertisements
Track Severe Weather on mobile